Time;durP1;ratioP1;P1;durP2;ratioP2;P2;SDS_P1;SDS_P2;PMS_P1;PMS_P2;Temp;Humidity;BMP_temperature;BMP_pressure;BME280_temperature;BME280_humidity;BME280_pressure;Samples;Min_cycle;Max_cycle;Signal;HPM_P1;HPM_P2
2022/12/21 00:02:55;;;;;;;38.05;22.05;;;;;;;1.62;84.71;100596.66;3340680;83;21094;-71
2022/12/21 00:07:46;;;;;;;34.18;22.40;;;;;;;1.61;84.66;100591.05;3331278;83;20989;-72
2022/12/21 00:12:37;;;;;;;40.52;24.02;;;;;;;1.55;84.68;100580.50;3369867;83;21000;-72
2022/12/21 00:17:28;;;;;;;38.38;23.02;;;;;;;1.46;84.44;100590.74;3366463;83;20955;-72
2022/12/21 00:22:19;;;;;;;37.75;22.22;;;;;;;1.46;84.48;100588.17;3312899;85;20997;-72
2022/12/21 00:27:10;;;;;;;38.42;23.27;;;;;;;1.46;84.45;100588.17;3339797;83;20987;-72
2022/12/21 00:32:02;;;;;;;39.78;24.20;;;;;;;1.47;84.52;100589.08;3321499;84;21003;-72
2022/12/21 00:36:53;;;;;;;35.25;20.80;;;;;;;1.45;84.58;100576.56;3303450;84;20908;-72
2022/12/21 00:41:44;;;;;;;34.50;20.92;;;;;;;1.37;84.42;100575.31;3346701;84;20948;-72
2022/12/21 00:46:37;;;;;;;39.88;24.35;;;;;;;1.35;84.36;100579.07;3294575;84;21039;-72
2022/12/21 00:51:30;;;;;;;38.33;24.85;;;;;;;1.37;84.63;100573.63;3277563;84;21023;-72
2022/12/21 00:56:23;;;;;;;38.48;22.15;;;;;;;1.40;84.72;100571.22;3271583;84;20983;-72
2022/12/21 01:01:21;;;;;;;38.25;23.87;;;;;;;1.40;84.59;100582.75;3278421;85;20953;-71
2022/12/21 01:06:23;;;;;;;41.53;22.95;;;;;;;1.44;84.51;100587.22;3302711;84;20987;-72
2022/12/21 01:11:16;;;;;;;41.58;24.80;;;;;;;1.50;84.48;100599.09;3314939;85;21990;-72
2022/12/21 01:16:19;;;;;;;38.58;25.45;;;;;;;1.57;84.35;100600.67;3270607;85;20991;-72
2022/12/21 01:21:24;;;;;;;36.35;22.35;;;;;;;1.56;84.33;100599.80;3283414;85;20936;-72
2022/12/21 01:26:16;;;;;;;42.48;24.60;;;;;;;1.53;84.24;100594.51;3276624;84;21032;-72
2022/12/21 01:31:07;;;;;;;45.28;25.72;;;;;;;1.56;84.34;100573.27;3242860;84;20999;-72
2022/12/21 01:36:08;;;;;;;42.43;24.23;;;;;;;1.59;83.92;100561.90;3326140;85;21087;-72
2022/12/21 01:40:59;;;;;;;44.38;26.87;;;;;;;1.62;83.87;100572.31;3294730;85;21315;-72
2022/12/21 01:45:52;;;;;;;37.73;23.02;;;;;;;1.64;83.57;100602.74;3285314;85;21007;-71
2022/12/21 01:50:56;;;;;;;40.05;23.75;;;;;;;1.66;83.58;100590.88;3284475;85;21007;-73
2022/12/21 01:55:51;;;;;;;40.58;24.67;;;;;;;1.72;83.44;100584.80;3315179;85;21658;-71
2022/12/21 02:00:42;;;;;;;40.98;24.40;;;;;;;1.75;83.54;100575.09;3344311;84;21034;-72
2022/12/21 02:05:50;;;;;;;39.53;23.30;;;;;;;1.75;83.59;100550.33;3321942;85;22305;-72
2022/12/21 02:10:42;;;;;;;33.33;22.22;;;;;;;1.73;83.30;100531.84;3340586;85;20971;-72
2022/12/21 02:15:58;;;;;;;46.37;24.37;;;;;;;1.69;83.39;100515.02;3336236;85;21799;-72
2022/12/21 02:20:58;;;;;;;40.05;24.63;;;;;;;1.73;83.41;100492.98;3331597;85;21601;-71
2022/12/21 02:26:33;;;;;;;40.48;24.80;;;;;;;1.73;83.49;100485.30;3354658;84;21161;-71
2022/12/21 02:31:39;;;;;;;39.78;23.50;;;;;;;1.74;83.43;100492.61;3368442;83;20988;-72
2022/12/21 02:36:51;;;;;;;38.78;22.42;;;;;;;1.72;83.08;100484.84;3360831;84;21560;-71
2022/12/21 02:44:12;;;;;;;43.17;26.60;;;;;;;1.75;83.13;100487.52;3362688;83;21572;-72
2022/12/21 02:47:20;;;;;;;39.88;23.60;;;;;;;1.82;83.38;100490.86;3347103;83;20986;-71
2022/12/21 02:52:29;;;;;;;38.45;23.90;;;;;;;1.83;83.11;100524.68;3375922;83;21352;-71
2022/12/21 02:57:34;;;;;;;36.40;22.30;;;;;;;1.79;82.93;100516.38;3353902;83;21682;-71
2022/12/21 03:03:47;;;;;;;44.85;25.52;;;;;;;1.82;82.79;100489.99;3380368;83;20982;-71
2022/12/21 03:08:09;;;;;;;40.85;24.95;;;;;;;1.84;82.77;100471.34;3370270;83;21058;-71
2022/12/21 03:13:47;;;;;;;40.40;24.27;;;;;;;1.84;83.01;100493.50;3345200;83;20974;-71
2022/12/21 03:19:05;;;;;;;34.90;21.97;;;;;;;1.82;83.01;100517.78;3383693;83;21139;-71
2022/12/21 03:24:22;;;;;;;37.15;22.37;;;;;;;1.84;83.06;100505.95;3366580;83;20931;-71
2022/12/21 03:29:18;;;;;;;33.95;22.32;;;;;;;1.86;82.86;100493.17;3372471;83;21479;-71
2022/12/21 03:34:28;;;;;;;39.45;22.98;;;;;;;1.88;82.86;100489.89;3296726;84;21042;-71
2022/12/21 03:39:23;;;;;;;41.13;22.55;;;;;;;1.86;82.81;100492.80;3315652;84;21101;-71
2022/12/21 03:44:19;;;;;;;37.05;22.00;;;;;;;1.85;82.63;100503.84;3324531;84;21101;-71
2022/12/21 03:49:29;;;;;;;34.85;19.87;;;;;;;1.86;82.94;100504.33;3283240;84;21511;-71
2022/12/21 03:54:32;;;;;;;44.55;23.55;;;;;;;1.88;82.58;100509.13;3327362;84;21007;-71
2022/12/21 03:59:25;;;;;;;40.00;23.70;;;;;;;1.90;82.43;100501.10;3342250;84;20989;-71
2022/12/21 04:04:27;;;;;;;34.58;21.12;;;;;;;1.90;82.50;100461.36;3333325;84;20995;-72
2022/12/21 04:09:18;;;;;;;36.40;20.05;;;;;;;1.84;82.51;100438.01;3284981;84;21868;-71
2022/12/21 04:14:09;;;;;;;34.85;21.52;;;;;;;1.83;82.56;100443.92;3320158;84;21518;-71
2022/12/21 04:29:19;;;;;;;35.25;20.92;;;;;;;1.64;82.95;100378.08;3312293;84;21050;-71
2022/12/21 04:34:10;;;;;;;34.45;19.12;;;;;;;1.56;83.05;100411.83;3267106;84;20900;-71
2022/12/21 04:39:01;;;;;;;41.55;23.20;;;;;;;1.50;83.18;100430.35;3336336;84;21716;-71
2022/12/21 04:43:52;;;;;;;36.88;21.93;;;;;;;1.53;83.20;100447.17;3286608;84;21007;-71
2022/12/21 04:48:45;;;;;;;37.38;21.73;;;;;;;1.56;83.13;100445.14;3349490;84;21486;-72
2022/12/21 04:53:36;;;;;;;32.48;20.50;;;;;;;1.54;83.06;100439.97;3320434;84;21027;-71
2022/12/21 04:58:28;;;;;;;35.55;21.35;;;;;;;1.50;82.88;100428.69;3314151;84;21372;-72
2022/12/21 05:03:19;;;;;;;36.65;21.10;;;;;;;1.49;82.92;100421.80;3340715;84;21066;-71
2022/12/21 05:08:10;;;;;;;37.80;22.52;;;;;;;1.53;82.90;100423.69;3335873;84;21014;-71
2022/12/21 05:13:02;;;;;;;33.92;21.12;;;;;;;1.52;82.95;100420.67;3359066;84;20947;-71
2022/12/21 05:17:53;;;;;;;35.10;22.45;;;;;;;1.51;82.96;100416.75;3321269;84;21315;-71
2022/12/21 05:22:48;;;;;;;33.90;20.15;;;;;;;1.48;82.70;100416.18;3317003;84;21818;-71
2022/12/21 05:27:39;;;;;;;35.08;20.90;;;;;;;1.49;82.88;100416.67;3321834;85;20984;-71
2022/12/21 05:32:30;;;;;;;37.23;21.37;;;;;;;1.50;82.67;100406.91;3301925;85;22177;-71
2022/12/21 05:37:21;;;;;;;36.28;21.45;;;;;;;1.49;82.61;100411.55;3248551;84;20948;-71
2022/12/21 05:42:12;;;;;;;35.03;21.57;;;;;;;1.45;82.54;100418.62;3313502;84;21008;-71
2022/12/21 05:47:03;;;;;;;35.15;20.95;;;;;;;1.44;82.63;100409.16;3275771;85;22172;-72
2022/12/21 05:51:54;;;;;;;32.50;18.20;;;;;;;1.44;82.47;100396.34;3303078;84;21018;-71
2022/12/21 05:56:45;;;;;;;31.40;20.57;;;;;;;1.45;82.41;100385.69;3298412;86;21001;-71
2022/12/21 06:01:37;;;;;;;41.10;24.07;;;;;;;1.46;82.42;100388.74;3295399;86;20959;-71
2022/12/21 06:06:28;;;;;;;37.65;23.12;;;;;;;1.51;82.51;100391.12;3260450;86;20968;-71
2022/12/21 06:11:23;;;;;;;40.17;23.07;;;;;;;1.50;82.45;100415.88;3258922;85;21488;-71
2022/12/21 06:16:18;;;;;;;39.80;21.90;;;;;;;1.52;82.57;100437.33;3333008;83;21529;-71
2022/12/21 06:21:14;;;;;;;39.98;22.48;;;;;;;1.53;82.31;100441.63;3289880;86;20971;-71
2022/12/21 06:26:08;;;;;;;39.53;24.55;;;;;;;1.53;82.22;100442.91;3317341;85;20971;-71
2022/12/21 06:31:09;;;;;;;33.80;20.37;;;;;;;1.55;82.07;100451.09;3299919;85;21007;-71
2022/12/21 06:36:01;;;;;;;39.83;22.35;;;;;;;1.59;81.87;100441.45;3343302;85;21859;-71
2022/12/21 06:40:59;;;;;;;32.50;19.35;;;;;;;1.62;81.89;100448.89;3344907;83;21223;-71
2022/12/21 06:45:55;;;;;;;32.73;20.00;;;;;;;1.69;81.93;100450.08;3342917;83;21508;-71
2022/12/21 06:50:57;;;;;;;37.67;22.60;;;;;;;1.75;81.80;100432.41;3321555;85;21426;-71
2022/12/21 06:55:48;;;;;;;41.08;22.05;;;;;;;1.82;81.61;100438.72;3334818;83;21011;-71
2022/12/21 07:00:40;;;;;;;35.25;20.40;;;;;;;1.83;81.55;100451.62;3316539;84;21034;-71
2022/12/21 07:05:31;;;;;;;37.35;22.20;;;;;;;1.83;81.46;100460.59;3306946;84;21032;-71
2022/12/21 07:10:22;;;;;;;33.20;20.92;;;;;;;1.86;81.52;100453.05;3322953;84;21046;-71
2022/12/21 07:15:13;;;;;;;33.63;20.65;;;;;;;1.88;81.35;100449.28;3307977;85;21066;-71
2022/12/21 07:20:06;;;;;;;32.60;19.75;;;;;;;1.86;81.38;100426.13;3337557;84;21390;-71
2022/12/21 07:24:57;;;;;;;35.70;20.82;;;;;;;1.87;81.30;100435.56;3333524;84;21091;-71
2022/12/21 07:29:49;;;;;;;35.37;21.10;;;;;;;1.87;81.21;100431.72;3341731;84;20931;-71
2022/12/21 07:34:40;;;;;;;37.58;21.93;;;;;;;1.88;81.26;100423.23;3297375;85;21197;-71
2022/12/21 07:39:31;;;;;;;29.57;20.75;;;;;;;1.94;81.30;100415.36;3250230;86;21410;-72
2022/12/21 07:44:22;;;;;;;37.35;22.73;;;;;;;1.98;81.07;100409.55;3234056;85;20979;-72
2022/12/21 07:49:16;;;;;;;35.55;22.20;;;;;;;1.99;81.11;100407.48;3327186;84;21019;-73
2022/12/21 07:54:07;;;;;;;38.45;21.27;;;;;;;2.00;81.02;100407.94;3333846;84;20936;-75
2022/12/21 07:59:00;;;;;;;31.27;19.75;;;;;;;2.03;80.81;100414.50;3336425;83;22160;-75
2022/12/21 08:03:51;;;;;;;30.15;19.05;;;;;;;2.08;80.66;100409.19;3271475;85;21026;-75
2022/12/21 08:08:43;;;;;;;30.85;20.27;;;;;;;2.17;80.58;100407.03;3326244;83;21493;-73
2022/12/21 08:13:33;;;;;;;34.75;21.77;;;;;;;2.28;80.42;100399.41;3354645;83;22016;-73
2022/12/21 08:18:25;;;;;;;31.02;19.12;;;;;;;2.37;80.33;100396.80;3316152;83;20990;-72
2022/12/21 08:23:15;;;;;;;32.25;20.97;;;;;;;2.47;80.25;100417.81;3265054;84;20951;-73
2022/12/21 08:28:06;;;;;;;30.82;19.87;;;;;;;2.55;80.14;100416.86;3308985;84;20912;-73
2022/12/21 08:32:58;;;;;;;29.50;19.27;;;;;;;2.58;79.66;100392.63;3309587;83;20964;-73
2022/12/21 08:37:52;;;;;;;34.65;19.75;;;;;;;2.65;79.35;100375.80;3329225;84;21505;-72
2022/12/21 08:42:43;;;;;;;28.60;18.90;;;;;;;2.74;79.35;100383.03;3250759;84;21086;-73
2022/12/21 08:47:34;;;;;;;31.50;21.20;;;;;;;2.83;79.54;100371.86;3263760;84;20892;-73
2022/12/21 08:52:25;;;;;;;34.58;21.27;;;;;;;2.97;79.31;100363.05;3299918;85;21723;-74
2022/12/21 08:57:16;;;;;;;31.42;20.35;;;;;;;3.04;78.98;100370.20;3303072;86;21074;-74
2022/12/21 09:02:11;;;;;;;35.23;21.05;;;;;;;3.04;78.69;100363.78;3313894;83;21132;-75
2022/12/21 09:07:02;;;;;;;31.95;20.70;;;;;;;3.09;78.94;100372.07;3344262;83;21250;-75
2022/12/21 09:11:55;;;;;;;34.35;21.37;;;;;;;3.17;78.49;100380.57;3378920;83;21041;-74
2022/12/21 09:16:46;;;;;;;32.80;20.00;;;;;;;3.41;77.91;100366.55;3295402;83;20974;-74
2022/12/21 09:21:37;;;;;;;33.53;22.10;;;;;;;3.58;78.18;100357.37;3390225;83;20985;-75
2022/12/21 09:26:28;;;;;;;29.65;19.95;;;;;;;3.63;77.79;100349.02;3326144;83;21444;-72
2022/12/21 09:31:22;;;;;;;31.73;20.32;;;;;;;3.70;77.74;100342.42;3375762;83;21017;-72
2022/12/21 09:36:14;;;;;;;31.37;19.82;;;;;;;3.77;77.48;100347.37;3355364;82;21483;-73
2022/12/21 09:41:10;;;;;;;31.35;19.32;;;;;;;3.82;77.11;100348.01;3341306;82;21495;-74
2022/12/21 09:46:12;;;;;;;23.27;16.10;;;;;;;3.94;76.78;100358.31;3385396;82;21237;-73
2022/12/21 09:51:14;;;;;;;28.70;20.05;;;;;;;4.07;76.16;100347.66;3379697;82;21030;-74
2022/12/21 09:56:08;;;;;;;31.50;19.10;;;;;;;4.11;76.18;100344.78;3351826;82;20993;-73
2022/12/21 10:01:14;;;;;;;34.18;21.40;;;;;;;4.20;75.39;100339.59;3409744;82;20993;-73
2022/12/21 10:06:19;;;;;;;29.48;20.17;;;;;;;4.22;75.99;100326.78;3169080;88;21682;-73
2022/12/21 10:11:45;;;;;;;32.23;20.27;;;;;;;4.16;75.59;100326.11;3153936;88;21129;-74
2022/12/21 10:17:07;;;;;;;31.07;19.85;;;;;;;4.20;76.03;100333.53;3157729;88;21054;-73
2022/12/21 10:22:15;;;;;;;27.75;18.98;;;;;;;4.17;76.16;100329.17;3162755;88;21031;-73
2022/12/21 10:27:31;;;;;;;24.87;17.75;;;;;;;4.26;75.97;100318.76;3144625;88;21501;-75
2022/12/21 10:32:26;;;;;;;29.45;20.08;;;;;;;4.49;75.44;100328.17;3157578;88;21041;-73
2022/12/21 10:37:21;;;;;;;26.42;18.10;;;;;;;4.87;75.17;100314.44;3151026;88;21016;-75
2022/12/21 10:42:20;;;;;;;31.50;19.92;;;;;;;4.88;74.42;100312.34;3249372;84;21443;-73
2022/12/21 10:47:14;;;;;;;30.08;19.17;;;;;;;4.81;74.63;100312.95;3343883;84;21480;-75
2022/12/21 10:52:48;;;;;;;32.25;20.10;;;;;;;4.80;74.52;100310.33;3310259;84;21615;-73
2022/12/21 10:57:39;;;;;;;28.35;18.07;;;;;;;4.73;74.60;100316.53;3297232;84;21042;-74
2022/12/21 11:02:37;;;;;;;32.30;21.35;;;;;;;4.74;74.65;100308.42;3315993;84;21010;-74
2022/12/21 11:07:30;;;;;;;31.45;19.20;;;;;;;4.71;74.96;100306.60;3308217;84;21085;-74
2022/12/21 11:12:24;;;;;;;31.23;19.75;;;;;;;4.87;74.98;100301.98;3318499;84;20999;-73
2022/12/21 11:17:28;;;;;;;32.17;19.55;;;;;;;5.06;74.77;100300.47;3337409;84;21026;-74
2022/12/21 11:22:26;;;;;;;28.12;18.55;;;;;;;5.19;74.36;100290.14;3345646;84;21117;-73
2022/12/21 11:27:28;;;;;;;24.85;17.30;;;;;;;5.12;74.14;100293.34;3322365;84;21492;-73
2022/12/21 11:32:21;;;;;;;30.20;19.77;;;;;;;4.89;74.18;100288.31;3353329;84;21109;-73
2022/12/21 11:37:39;;;;;;;23.55;16.87;;;;;;;4.73;74.59;100298.93;3334034;84;21589;-73
2022/12/21 11:42:31;;;;;;;26.80;17.90;;;;;;;4.72;74.52;100299.74;3340937;85;21500;-74
2022/12/21 11:47:48;;;;;;;24.25;16.45;;;;;;;4.77;74.62;100303.35;3278840;85;20990;-73
2022/12/21 11:52:54;;;;;;;29.65;19.10;;;;;;;4.73;74.35;100279.61;3341238;83;21277;-73
2022/12/21 11:58:08;;;;;;;27.02;17.40;;;;;;;4.74;74.74;100278.80;3336601;84;21055;-73
2022/12/21 12:03:35;;;;;;;25.35;18.25;;;;;;;4.76;74.55;100284.45;3333187;85;21485;-73
2022/12/21 12:08:59;;;;;;;25.75;16.82;;;;;;;4.67;74.82;100275.53;3326514;84;21520;-74
2022/12/21 12:14:16;;;;;;;26.27;17.48;;;;;;;4.65;74.87;100278.08;3268137;86;20968;-74
2022/12/21 12:19:19;;;;;;;29.50;18.30;;;;;;;4.66;74.84;100266.07;3251639;86;20985;-74
2022/12/21 12:24:47;;;;;;;25.70;18.40;;;;;;;4.68;74.84;100265.70;3215254;87;21738;-74
2022/12/21 12:30:13;;;;;;;;;;;;;;;4.64;74.98;100263.44;3189694;87;21001;-74
2022/12/21 12:35:33;;;;;;;26.30;18.10;;;;;;;4.51;75.10;100258.71;3167067;89;20138;-75
2022/12/21 12:40:54;;;;;;;30.80;20.70;;;;;;;4.32;75.31;100246.89;3149647;89;21069;-74
2022/12/21 12:46:11;;;;;;;29.65;18.07;;;;;;;4.13;75.53;100240.22;3166149;87;21028;-74
2022/12/21 12:51:29;;;;;;;28.35;18.32;;;;;;;3.98;75.83;100252.14;3189420;88;21540;-74
2022/12/21 12:56:45;;;;;;;25.17;17.05;;;;;;;3.81;76.06;100244.69;3315645;85;21044;-73
2022/12/21 13:02:06;;;;;;;31.45;18.87;;;;;;;3.66;76.31;100247.97;3378799;83;21011;-73
2022/12/21 13:07:23;;;;;;;29.52;19.87;;;;;;;3.53;76.52;100250.91;3376815;83;21025;-73
2022/12/21 13:12:19;;;;;;;31.00;19.52;;;;;;;3.39;76.77;100269.23;3340292;84;22411;-75
2022/12/21 13:17:31;;;;;;;27.58;18.23;;;;;;;3.29;77.06;100254.69;3300166;84;28309;-74
2022/12/21 13:22:28;;;;;;;26.23;17.05;;;;;;;3.22;77.28;100249.74;3319471;85;21120;-74
2022/12/21 13:27:29;;;;;;;26.93;17.03;;;;;;;3.24;77.45;100251.95;3298130;84;20966;-74
2022/12/21 13:32:37;;;;;;;27.27;17.35;;;;;;;3.20;77.55;100249.67;3288699;84;20976;-74
2022/12/21 13:37:28;;;;;;;27.80;17.67;;;;;;;3.19;77.63;100244.47;3380088;83;26110;-73
2022/12/21 13:42:31;;;;;;;27.30;17.12;;;;;;;3.15;77.75;100245.14;3311748;84;20977;-74
2022/12/21 13:47:25;;;;;;;28.07;17.12;;;;;;;3.10;77.88;100241.55;3357046;84;21227;-73
2022/12/21 13:52:39;;;;;;;26.90;16.77;;;;;;;3.12;77.92;100232.20;3388834;83;21000;-74
2022/12/21 13:57:38;;;;;;;29.20;17.62;;;;;;;3.11;78.02;100242.00;3386410;83;20906;-74
2022/12/21 14:02:59;;;;;;;26.42;16.60;;;;;;;3.11;78.07;100229.16;3356828;83;20979;-74
2022/12/21 14:08:22;;;;;;;33.50;18.35;;;;;;;3.06;78.09;100237.98;3338987;84;21316;-72
2022/12/21 14:13:43;;;;;;;29.55;17.92;;;;;;;2.97;78.21;100242.34;3317988;84;20989;-74
2022/12/21 14:18:38;;;;;;;29.55;18.65;;;;;;;2.92;78.34;100229.72;3366751;84;21004;-74
2022/12/21 14:23:32;;;;;;;32.60;19.20;;;;;;;2.86;78.46;100224.33;3303460;84;20988;-74
2022/12/21 14:28:47;;;;;;;32.00;19.77;;;;;;;2.82;78.59;100223.73;3356002;84;21044;-75
2022/12/21 14:33:56;;;;;;;34.70;19.20;;;;;;;2.78;78.68;100224.44;3357405;83;21132;-74
2022/12/21 14:39:13;;;;;;;26.57;18.57;;;;;;;2.71;78.73;100226.29;3334131;84;21056;-73
2022/12/21 14:44:21;;;;;;;34.67;20.17;;;;;;;2.64;78.87;100222.17;3353630;84;20972;-74
2022/12/21 14:49:39;;;;;;;;;;;;;;;2.59;79.19;100236.92;3335496;84;21036;-73
2022/12/21 14:54:37;;;;;;;32.60;19.55;;;;;;;2.55;79.33;100246.18;3371040;83;20318;-74
2022/12/21 14:59:34;;;;;;;34.43;20.80;;;;;;;2.48;79.64;100241.19;3341430;83;21367;-74
2022/12/21 15:04:28;;;;;;;33.13;20.10;;;;;;;2.45;79.85;100244.94;3364402;83;20988;-72
2022/12/21 15:09:28;;;;;;;30.85;19.37;;;;;;;2.40;79.96;100244.27;3359068;83;20949;-72
2022/12/21 15:14:36;;;;;;;32.23;20.02;;;;;;;2.36;80.26;100243.66;3356448;83;21032;-72
2022/12/21 15:19:42;;;;;;;32.53;20.32;;;;;;;2.31;80.56;100241.30;3387852;83;21554;-73
2022/12/21 15:24:34;;;;;;;36.05;21.80;;;;;;;2.26;80.73;100238.13;3384187;83;21868;-73
2022/12/21 15:29:42;;;;;;;33.33;20.92;;;;;;;2.22;81.05;100230.27;3318673;83;21391;-74
2022/12/21 15:34:38;;;;;;;33.50;20.37;;;;;;;2.16;81.12;100227.00;3370983;83;21016;-74
2022/12/21 15:39:37;;;;;;;31.73;19.55;;;;;;;2.14;81.39;100232.48;3378184;83;21530;-73
2022/12/21 15:44:58;;;;;;;33.15;20.72;;;;;;;2.12;81.55;100223.84;3398696;83;21004;-74
2022/12/21 15:50:13;;;;;;;37.63;22.58;;;;;;;2.09;81.63;100226.27;3365364;83;21029;-75
2022/12/21 15:55:09;;;;;;;31.27;21.57;;;;;;;2.06;81.92;100234.72;3390727;83;21004;-76
2022/12/21 16:00:01;;;;;;;43.63;25.60;;;;;;;2.04;81.98;100231.22;3386504;83;21610;-73
2022/12/21 16:04:54;;;;;;;42.38;25.75;;;;;;;2.01;82.14;100232.77;3362207;83;21400;-73
2022/12/21 16:09:56;;;;;;;37.67;25.48;;;;;;;2.02;82.40;100234.51;3324653;83;21362;-74
2022/12/21 16:14:47;;;;;;;45.08;27.62;;;;;;;2.01;82.49;100237.91;3352618;84;21404;-75
2022/12/21 16:19:43;;;;;;;41.15;27.55;;;;;;;1.98;82.49;100232.63;3344961;83;21220;-74
2022/12/21 16:24:38;;;;;;;52.77;30.63;;;;;;;1.96;82.70;100226.56;3334657;83;21024;-73
2022/12/21 16:29:32;;;;;;;45.35;28.98;;;;;;;1.98;83.00;100228.37;3355258;84;21060;-73
2022/12/21 16:34:36;;;;;;;43.85;28.67;;;;;;;1.99;83.16;100208.34;3335318;83;21004;-73
2022/12/21 16:39:26;;;;;;;45.28;29.23;;;;;;;1.97;83.06;100215.48;3361438;83;21165;-73
2022/12/21 16:44:23;;;;;;;43.92;28.75;;;;;;;1.97;83.29;100206.13;3325862;83;22149;-74
2022/12/21 16:49:30;;;;;;;45.88;28.65;;;;;;;1.98;83.32;100219.81;3334434;83;21004;-72
2022/12/21 16:54:44;;;;;;;43.45;27.87;;;;;;;1.96;83.41;100218.87;3343189;84;21010;-73
2022/12/21 16:59:39;;;;;;;43.48;28.52;;;;;;;1.96;83.59;100221.44;3331208;84;20917;-72
2022/12/21 17:04:34;;;;;;;43.87;28.50;;;;;;;1.97;83.70;100219.33;3333679;84;21106;-72
2022/12/21 17:09:34;;;;;;;39.53;25.50;;;;;;;1.97;83.68;100218.05;3335303;84;20979;-72
2022/12/21 17:14:26;;;;;;;46.50;30.30;;;;;;;1.95;83.70;100221.84;3320579;85;21003;-72
2022/12/21 17:19:22;;;;;;;43.40;29.32;;;;;;;1.90;83.84;100228.05;3288694;85;21011;-73
2022/12/21 17:24:38;;;;;;;43.75;29.98;;;;;;;1.92;83.95;100222.12;3305726;85;20955;-73
2022/12/21 17:29:30;;;;;;;45.63;28.25;;;;;;;1.94;84.24;100221.77;3299877;85;21225;-73
2022/12/21 17:34:25;;;;;;;42.80;28.55;;;;;;;1.95;84.29;100209.41;3315622;85;20971;-74
2022/12/21 17:39:19;;;;;;;46.88;29.90;;;;;;;1.97;84.62;100205.22;3236376;84;20955;-73
2022/12/21 17:44:10;;;;;;;47.53;30.75;;;;;;;1.95;84.64;100199.16;3337665;84;21576;-73
2022/12/21 17:49:02;;;;;;;46.63;29.82;;;;;;;1.93;84.33;100196.94;3279964;84;20991;-72
2022/12/21 17:53:53;;;;;;;50.70;31.87;;;;;;;1.94;84.53;100201.27;3373340;83;21117;-73
2022/12/21 17:58:45;;;;;;;47.88;29.05;;;;;;;1.96;84.79;100197.08;3296803;84;21486;-72
2022/12/21 18:03:36;;;;;;;49.23;30.92;;;;;;;1.94;84.67;100189.73;3349624;83;20977;-72
2022/12/21 18:08:28;;;;;;;46.85;32.58;;;;;;;1.93;84.64;100187.55;3304793;83;21539;-73
2022/12/21 18:13:20;;;;;;;48.13;31.17;;;;;;;1.90;84.76;100188.72;3312240;83;21552;-73
2022/12/21 18:18:24;;;;;;;47.98;29.98;;;;;;;1.93;85.23;100193.95;3316071;83;22162;-72
2022/12/21 18:23:36;;;;;;;48.80;33.28;;;;;;;1.92;84.98;100188.79;3368612;83;21140;-72
2022/12/21 18:28:34;;;;;;;45.95;32.17;;;;;;;1.94;85.47;100188.45;3366235;83;20945;-73
2022/12/21 18:33:27;;;;;;;45.92;29.70;;;;;;;1.93;85.04;100189.23;3361139;83;20942;-73
2022/12/21 18:38:31;;;;;;;45.08;28.77;;;;;;;1.93;85.50;100178.58;3325007;83;21077;-72
2022/12/21 18:43:27;;;;;;;44.88;30.62;;;;;;;1.93;85.15;100180.27;3388486;83;21343;-72
2022/12/21 18:48:20;;;;;;;45.48;30.57;;;;;;;1.93;85.29;100180.27;3329684;83;21699;-72
2022/12/21 18:53:17;;;;;;;46.23;30.12;;;;;;;1.90;85.23;100174.20;3348849;83;20971;-73
2022/12/21 18:58:10;;;;;;;43.92;28.73;;;;;;;1.89;85.20;100169.88;3325856;83;20990;-74
2022/12/21 19:03:01;;;;;;;45.35;29.02;;;;;;;1.91;85.43;100168.66;3378357;83;21245;-73
2022/12/21 19:07:54;;;;;;;47.78;31.82;;;;;;;1.90;85.45;100163.95;3354017;84;21056;-73
2022/12/21 19:12:45;;;;;;;47.93;31.12;;;;;;;1.92;85.76;100162.73;3388705;83;20947;-73
2022/12/21 19:17:36;;;;;;;46.18;30.72;;;;;;;1.92;85.70;100165.72;3345602;84;21703;-73
2022/12/21 19:22:30;;;;;;;46.85;29.00;;;;;;;1.90;85.45;100169.08;3343540;83;21059;-73
2022/12/21 19:27:21;;;;;;;44.30;29.02;;;;;;;1.94;85.84;100166.66;3305748;83;20979;-73
2022/12/21 19:32:14;;;;;;;41.02;27.98;;;;;;;1.90;85.54;100166.52;3380020;83;22373;-73
2022/12/21 19:37:06;;;;;;;43.90;29.48;;;;;;;1.88;85.49;100169.84;3277403;83;20999;-73
2022/12/21 19:42:04;;;;;;;49.65;31.60;;;;;;;1.86;85.53;100178.73;3310243;83;21485;-73
2022/12/21 19:46:55;;;;;;;46.08;28.70;;;;;;;1.85;85.73;100173.13;3315668;84;22208;-73
2022/12/21 19:51:46;;;;;;;45.12;30.72;;;;;;;1.83;85.56;100166.19;3315493;85;21891;-73
2022/12/21 19:56:37;;;;;;;48.83;30.62;;;;;;;1.86;86.10;100154.77;3263440;84;22210;-73
2022/12/21 20:01:32;;;;;;;45.23;27.55;;;;;;;1.86;85.94;100150.92;3316849;84;22243;-73
2022/12/21 20:06:24;;;;;;;47.58;28.35;;;;;;;1.89;86.52;100159.62;3337046;83;21540;-73
2022/12/21 20:11:23;;;;;;;47.10;31.40;;;;;;;1.93;86.59;100170.02;3308805;83;21510;-73
2022/12/21 20:16:15;;;;;;;46.98;30.65;;;;;;;1.93;86.30;100159.76;3316819;84;20975;-73
2022/12/21 20:21:12;;;;;;;43.90;30.43;;;;;;;1.92;86.50;100154.17;3309167;83;21997;-73
2022/12/21 20:26:03;;;;;;;51.43;29.97;;;;;;;1.93;86.53;100168.31;3324061;84;20996;-73
2022/12/21 20:30:54;;;;;;;51.15;30.23;;;;;;;1.93;86.73;100170.02;3293749;83;21560;-73
2022/12/21 20:35:45;;;;;;;49.95;32.05;;;;;;;1.95;86.72;100165.82;3293553;83;21090;-73
2022/12/21 20:40:36;;;;;;;53.27;33.00;;;;;;;1.98;87.02;100176.22;3342878;83;21149;-74
2022/12/21 20:45:38;;;;;;;44.38;29.80;;;;;;;1.98;86.99;100175.80;3327519;83;21318;-73
2022/12/21 20:50:33;;;;;;;51.60;32.38;;;;;;;1.99;86.94;100175.42;3339497;83;21002;-74
2022/12/21 21:00:34;;;;;;;47.05;27.82;;;;;;;1.96;86.90;100167.59;3362034;83;20948;-73
2022/12/21 21:05:25;;;;;;;54.90;31.52;;;;;;;1.97;86.77;100166.77;3357251;83;20901;-74
2022/12/21 21:10:19;;;;;;;48.38;29.65;;;;;;;1.96;87.10;100163.75;3307303;84;21015;-73
2022/12/21 21:15:17;;;;;;;47.25;30.48;;;;;;;1.96;86.90;100159.90;3278736;83;21014;-73
2022/12/21 21:20:14;;;;;;;54.85;33.20;;;;;;;1.97;87.02;100153.94;3345588;84;21023;-73
2022/12/21 21:25:05;;;;;;;44.87;27.87;;;;;;;1.98;87.40;100158.27;3368567;83;20924;-73
2022/12/21 21:29:56;;;;;;;52.48;32.58;;;;;;;1.98;87.38;100160.42;3339532;83;21118;-73
2022/12/21 21:34:47;;;;;;;49.03;30.47;;;;;;;1.97;87.18;100147.15;3346357;83;20993;-73
2022/12/21 21:44:37;;;;;;;46.80;31.00;;;;;;;1.99;87.36;100147.22;3274845;83;21497;-73
2022/12/21 21:49:33;;;;;;;49.15;31.17;;;;;;;2.00;87.77;100147.25;3379589;83;21010;-73
2022/12/21 21:54:25;;;;;;;48.90;31.50;;;;;;;2.04;87.90;100146.98;3393289;83;21034;-73
2022/12/21 21:59:33;;;;;;;51.90;30.75;;;;;;;2.04;87.60;100154.28;3363910;83;20939;-73
2022/12/21 22:04:25;;;;;;;52.17;32.67;;;;;;;1.99;87.45;100153.21;3351384;83;20948;-73
2022/12/21 22:09:16;;;;;;;49.45;28.80;;;;;;;1.99;87.52;100157.47;3342299;83;20974;-73
2022/12/21 22:14:21;;;;;;;46.28;29.55;;;;;;;1.97;87.58;100148.43;3358983;83;20908;-74
2022/12/21 22:32:10;;;;;;;48.40;30.15;;;;;;;1.98;87.85;100142.89;3345541;82;39770;-73
2022/12/21 22:45:19;;;;;;;50.65;31.23;;;;;;;2.01;88.16;100114.41;3357505;84;20952;-73
2022/12/21 22:50:10;;;;;;;51.28;31.07;;;;;;;2.01;88.13;100122.52;3361041;83;21857;-73
2022/12/21 22:55:04;;;;;;;49.95;31.27;;;;;;;2.03;88.22;100121.75;3330039;83;20978;-73
2022/12/21 22:59:55;;;;;;;58.35;31.70;;;;;;;2.06;88.35;100110.77;3352764;83;21030;-73
2022/12/21 23:04:47;;;;;;;51.42;30.37;;;;;;;2.06;88.46;100114.19;3312359;83;20972;-74
2022/12/21 23:09:38;;;;;;;49.55;29.80;;;;;;;2.07;88.58;100117.63;3325395;83;21091;-73
2022/12/21 23:14:47;;;;;;;49.88;30.62;;;;;;;2.03;88.11;100121.75;3333734;83;21010;-74
2022/12/21 23:19:39;;;;;;;55.67;33.15;;;;;;;2.02;88.12;100126.81;3366872;83;21496;-73
2022/12/21 23:29:39;;;;;;;54.35;32.38;;;;;;;2.06;88.54;100122.30;3331310;84;21011;-73
2022/12/21 23:44:52;;;;;;;50.03;30.95;;;;;;;2.00;88.16;100125.45;3281608;84;21061;-73
